createdAt,value
2018-01-27T00:01:05.291Z,15.90
2018-01-27T00:03:33.039Z,14.70
2018-01-27T00:06:00.688Z,16.33
2018-01-27T00:08:29.058Z,14.47
2018-01-27T00:10:57.471Z,15.90
2018-01-27T00:13:25.067Z,13.40
2018-01-27T00:15:52.702Z,14.47
2018-01-27T00:18:20.462Z,14.10
2018-01-27T00:20:48.124Z,14.00
2018-01-27T00:23:15.764Z,15.50
2018-01-27T00:25:43.330Z,14.80
2018-01-27T00:28:10.964Z,14.93
2018-01-27T00:30:39.432Z,15.90
2018-01-27T00:33:07.844Z,13.70
2018-01-27T00:35:35.438Z,14.80
2018-01-27T00:38:03.127Z,15.93
2018-01-27T00:40:30.820Z,16.10
2018-01-27T00:42:58.407Z,16.73
2018-01-27T00:45:25.983Z,14.93
2018-01-27T00:47:53.577Z,16.20
2018-01-27T00:50:21.918Z,17.00
2018-01-27T00:52:49.511Z,16.90
2018-01-27T00:55:17.880Z,18.80
2018-01-27T00:57:46.214Z,16.80
2018-01-27T01:00:13.815Z,14.70
2018-01-27T01:02:42.151Z,14.93
2018-01-27T01:05:09.790Z,18.27
2018-01-27T01:07:37.356Z,17.03
2018-01-27T01:10:04.954Z,16.80
2018-01-27T01:12:32.515Z,17.10
2018-01-27T01:15:00.115Z,17.00
2018-01-27T01:17:27.826Z,19.33
2018-01-27T01:19:55.566Z,19.00
2018-01-27T01:22:23.218Z,20.13
2018-01-27T01:24:50.782Z,17.43
2018-01-27T01:27:18.550Z,20.13
2018-01-27T01:29:46.186Z,19.43
2018-01-27T01:32:13.751Z,18.33
2018-01-27T01:34:41.412Z,18.80
2018-01-27T01:37:08.966Z,18.93
2018-01-27T01:39:36.612Z,19.40
2018-01-27T01:42:04.934Z,19.43
2018-01-27T01:44:32.788Z,18.60
2018-01-27T01:47:00.344Z,20.90
2018-01-27T01:49:27.894Z,21.23
2018-01-27T01:51:55.490Z,20.70
2018-01-27T01:54:23.051Z,21.47
2018-01-27T01:56:50.635Z,22.00
2018-01-27T01:59:19.023Z,21.83
2018-01-27T02:01:46.628Z,22.87
2018-01-27T02:04:14.182Z,19.93
2018-01-27T02:06:41.770Z,23.87
2018-01-27T02:09:09.367Z,23.23
2018-01-27T02:11:36.934Z,21.87
2018-01-27T02:14:04.510Z,22.77
2018-01-27T02:16:32.071Z,24.17
2018-01-27T02:18:59.682Z,24.60
2018-01-27T02:21:27.998Z,26.17
2018-01-27T02:23:55.566Z,25.13
2018-01-27T02:26:23.196Z,25.17
2018-01-27T02:28:50.894Z,27.70
2018-01-27T02:31:18.463Z,26.60
2018-01-27T02:33:46.030Z,27.73
2018-01-27T02:36:13.722Z,27.20
2018-01-27T02:38:42.094Z,27.20
2018-01-27T02:41:10.450Z,26.40
2018-01-27T02:43:38.022Z,26.33
2018-01-27T02:46:06.454Z,26.67
2018-01-27T02:48:34.034Z,27.13
2018-01-27T02:51:01.594Z,26.00
2018-01-27T02:53:29.185Z,28.63
2018-01-27T02:55:57.505Z,27.90
2018-01-27T02:58:25.106Z,29.73
2018-01-27T03:00:52.695Z,27.40
2018-01-27T03:03:20.291Z,28.00
2018-01-27T03:05:47.886Z,28.67
2018-01-27T03:08:15.518Z,28.60
2018-01-27T03:10:43.228Z,28.70
2018-01-27T03:13:11.569Z,28.33
2018-01-27T03:15:39.156Z,30.57
2018-01-27T03:18:07.474Z,29.70
2018-01-27T03:20:35.055Z,28.97
2018-01-27T03:23:02.610Z,27.80
2018-01-27T03:25:30.209Z,26.97
2018-01-27T03:27:58.562Z,23.37
2018-01-27T03:30:26.165Z,25.53
2018-01-27T03:32:53.766Z,27.10
2018-01-27T03:35:21.405Z,24.23
2018-01-27T03:37:48.978Z,22.97
2018-01-27T03:40:16.586Z,26.20
2018-01-27T03:42:44.927Z,25.30
2018-01-27T03:45:12.662Z,26.03
2018-01-27T03:47:40.219Z,26.13
2018-01-27T03:50:07.895Z,25.00
2018-01-27T03:52:35.490Z,27.50
2018-01-27T03:55:03.815Z,25.50
2018-01-27T03:57:31.459Z,27.20
2018-01-27T03:59:59.071Z,27.10
2018-01-27T04:02:26.650Z,27.60
2018-01-27T04:04:55.070Z,28.80
2018-01-27T04:07:22.634Z,28.17
2018-01-27T04:09:50.223Z,27.67
2018-01-27T04:12:17.791Z,28.03
2018-01-27T04:14:45.477Z,28.50
2018-01-27T04:17:13.802Z,29.00
2018-01-27T04:19:41.402Z,26.93
2018-01-27T04:22:09.734Z,25.60
2018-01-27T04:24:37.322Z,25.33
2018-01-27T04:27:04.875Z,27.00
2018-01-27T04:29:32.418Z,25.13
2018-01-27T04:32:00.011Z,25.17
2018-01-27T04:34:27.599Z,26.97
2018-01-27T04:36:55.155Z,24.73
2018-01-27T04:39:22.741Z,22.70
2018-01-27T04:41:50.295Z,23.60
2018-01-27T04:44:17.883Z,24.23
2018-01-27T04:46:45.533Z,23.40
2018-01-27T04:49:13.122Z,23.97
2018-01-27T04:51:41.446Z,23.47
2018-01-27T04:54:09.053Z,23.30
2018-01-27T04:56:37.378Z,21.43
2018-01-27T04:59:04.938Z,22.70
2018-01-27T05:01:32.636Z,22.20
2018-01-27T05:04:00.206Z,21.30
2018-01-27T05:06:28.622Z,22.17
2018-01-27T05:08:56.595Z,22.83
2018-01-27T05:11:24.170Z,22.80
2018-01-27T05:13:51.774Z,23.00
2018-01-27T05:16:20.113Z,22.63
2018-01-27T05:18:47.713Z,23.23
2018-01-27T05:21:16.059Z,22.13
2018-01-27T05:23:43.706Z,23.00
2018-01-27T05:26:11.289Z,22.30
2018-01-27T05:28:38.855Z,24.60
2018-01-27T05:31:06.582Z,23.50
2018-01-27T05:33:34.142Z,23.60
2018-01-27T05:36:01.751Z,25.63
2018-01-27T05:38:30.076Z,24.57
2018-01-27T05:40:57.842Z,24.70
2018-01-27T05:43:25.436Z,26.77
2018-01-27T05:45:53.000Z,26.00
2018-01-27T05:48:21.358Z,23.80
2018-01-27T05:50:48.947Z,23.80
2018-01-27T05:53:17.437Z,27.63
2018-01-27T05:55:44.998Z,25.67
2018-01-27T05:58:13.502Z,25.67
2018-01-27T06:00:41.087Z,24.50
2018-01-27T06:03:08.710Z,24.67
2018-01-27T06:05:36.265Z,27.33
2018-01-27T06:08:03.885Z,25.70
2018-01-27T06:10:31.483Z,26.67
2018-01-27T06:12:59.039Z,28.20
2018-01-27T06:15:26.618Z,26.30
2018-01-27T06:17:54.206Z,26.33
2018-01-27T06:20:21.977Z,24.80
2018-01-27T06:22:49.574Z,24.70
2018-01-27T06:25:17.138Z,28.60
2018-01-27T06:27:44.799Z,26.53
2018-01-27T06:30:12.368Z,27.40
2018-01-27T06:32:39.931Z,26.93
2018-01-27T06:35:07.522Z,28.90
2018-01-27T06:37:35.081Z,27.80
2018-01-27T06:40:02.672Z,29.17
2018-01-27T06:42:31.146Z,30.40
2018-01-27T06:44:59.566Z,31.03
2018-01-27T06:47:27.140Z,28.33
2018-01-27T06:49:54.790Z,28.03
2018-01-27T06:52:22.392Z,29.50
2018-01-27T06:54:49.994Z,29.50
2018-01-27T06:57:17.571Z,28.17
2018-01-27T06:59:45.135Z,29.17
2018-01-27T07:02:12.744Z,28.50
2018-01-27T07:04:41.064Z,29.70
2018-01-27T07:07:08.666Z,29.60
2018-01-27T07:09:37.014Z,31.53
2018-01-27T07:12:04.587Z,31.13
2018-01-27T07:14:32.228Z,30.43
2018-01-27T07:16:59.814Z,30.33
2018-01-27T07:19:28.346Z,29.53
2018-01-27T07:21:55.911Z,28.83
2018-01-27T07:24:23.498Z,30.57
2018-01-27T07:26:51.082Z,31.50
2018-01-27T07:29:19.502Z,29.07
2018-01-27T07:31:47.122Z,25.60
2018-01-27T07:34:15.453Z,25.50
2018-01-27T07:36:43.059Z,27.67
2018-01-27T07:39:11.389Z,24.43
2018-01-27T07:41:38.945Z,24.77
2018-01-27T07:44:06.583Z,23.30
2018-01-27T07:46:34.885Z,26.77
2018-01-27T07:49:02.509Z,26.60
2018-01-27T07:51:30.082Z,27.60
2018-01-27T07:53:57.653Z,26.70
2018-01-27T07:56:25.250Z,29.13
2018-01-27T07:58:52.813Z,29.20
2018-01-27T08:01:21.183Z,27.53
2018-01-27T08:03:48.747Z,28.00
2018-01-27T08:06:16.322Z,27.37
2018-01-27T08:08:44.691Z,27.67
2018-01-27T08:11:13.040Z,28.93
2018-01-27T08:13:40.627Z,28.80
2018-01-27T08:16:08.951Z,28.20
2018-01-27T08:18:36.554Z,28.90
2018-01-27T08:21:04.130Z,30.60
2018-01-27T08:23:31.746Z,29.40
2018-01-27T08:25:59.334Z,32.00
2018-01-27T08:28:27.727Z,29.60
2018-01-27T08:30:56.083Z,32.50
2018-01-27T08:33:23.654Z,32.43
2018-01-27T08:35:51.998Z,31.97
2018-01-27T08:38:19.739Z,31.70
2018-01-27T08:40:47.318Z,34.00
2018-01-27T08:43:14.910Z,30.53
2018-01-27T08:45:43.254Z,30.60
2018-01-27T08:48:10.823Z,32.77
2018-01-27T08:50:38.435Z,30.93
2018-01-27T08:53:06.012Z,30.90
2018-01-27T08:55:33.598Z,27.47
2018-01-27T08:58:01.174Z,27.93
2018-01-27T09:00:29.596Z,30.77
2018-01-27T09:02:57.161Z,29.77
2018-01-27T09:05:24.792Z,28.40
2018-01-27T09:07:53.138Z,29.33
2018-01-27T09:10:21.483Z,29.50
2018-01-27T09:12:49.066Z,32.27
2018-01-27T09:15:16.646Z,29.73
2018-01-27T09:17:45.004Z,31.40
2018-01-27T09:20:12.625Z,32.87
2018-01-27T09:22:40.242Z,33.57
2018-01-27T09:25:08.618Z,31.40
2018-01-27T09:27:36.997Z,29.17
2018-01-27T09:30:05.532Z,29.27
2018-01-27T09:32:33.134Z,29.43
2018-01-27T09:35:01.514Z,25.67
2018-01-27T09:37:29.882Z,27.37
2018-01-27T09:39:57.670Z,30.93
2018-01-27T09:42:25.303Z,29.00
2018-01-27T09:44:52.870Z,29.00
2018-01-27T09:47:21.391Z,29.27
2018-01-27T09:49:49.122Z,26.20
2018-01-27T09:52:17.674Z,27.20
2018-01-27T09:54:45.254Z,25.20
2018-01-27T09:57:13.699Z,27.07
2018-01-27T09:59:41.310Z,26.43
2018-01-27T10:02:09.010Z,26.20
2018-01-27T10:04:36.607Z,25.73
2018-01-27T10:07:04.186Z,24.87
2018-01-27T10:09:32.707Z,25.43
2018-01-27T10:12:00.282Z,25.53
2018-01-27T10:14:27.862Z,24.70
2018-01-27T10:16:55.486Z,23.90
2018-01-27T10:19:23.079Z,23.20
2018-01-27T10:21:50.655Z,23.60
2018-01-27T10:24:19.002Z,25.00
2018-01-27T10:26:46.827Z,22.30
2018-01-27T10:29:14.400Z,22.30
2018-01-27T10:31:41.996Z,22.40
2018-01-27T10:34:09.558Z,23.20
2018-01-27T10:36:37.163Z,19.73
2018-01-27T10:39:04.723Z,21.30
2018-01-27T10:41:32.287Z,22.37
2018-01-27T10:43:59.876Z,22.80
2018-01-27T10:46:27.439Z,23.53
2018-01-27T10:48:55.045Z,25.67
2018-01-27T10:51:22.611Z,24.73
2018-01-27T10:53:50.179Z,23.63
2018-01-27T10:56:17.799Z,23.33
2018-01-27T10:58:46.122Z,22.53
2018-01-27T11:01:13.748Z,24.30
2018-01-27T11:03:41.323Z,23.17
2018-01-27T11:06:08.886Z,24.70
2018-01-27T11:08:36.467Z,22.13
2018-01-27T11:11:04.063Z,25.00
2018-01-27T11:13:32.527Z,23.97
2018-01-27T11:16:00.113Z,23.97
2018-01-27T11:18:28.454Z,23.37
2018-01-27T11:20:56.054Z,23.87
2018-01-27T11:23:23.625Z,23.07
2018-01-27T11:25:51.302Z,23.50
2018-01-27T11:28:18.895Z,24.43
2018-01-27T11:30:47.965Z,23.43
2018-01-27T11:33:15.747Z,24.80
2018-01-27T11:35:43.434Z,24.20
2018-01-27T11:38:11.802Z,24.53
2018-01-27T11:40:39.394Z,25.60
2018-01-27T11:43:07.006Z,24.93
2018-01-27T11:45:34.642Z,26.17
2018-01-27T11:48:02.381Z,23.00
2018-01-27T11:50:29.958Z,23.87
2018-01-27T11:52:57.544Z,24.27
2018-01-27T11:55:25.172Z,22.20
2018-01-27T11:57:52.824Z,23.13
2018-01-27T12:00:20.464Z,21.13
2018-01-27T12:02:48.811Z,22.47
2018-01-27T12:05:16.410Z,22.30
2018-01-27T12:07:43.999Z,21.67
2018-01-27T12:10:11.639Z,21.10
2018-01-27T12:12:39.235Z,20.27
2018-01-27T12:15:06.837Z,23.97
2018-01-27T12:17:35.205Z,21.90
2018-01-27T12:20:03.591Z,22.27
2018-01-27T12:22:32.053Z,20.87
2018-01-27T12:24:59.667Z,21.33
2018-01-27T12:27:27.218Z,20.70
2018-01-27T12:29:54.811Z,22.27
2018-01-27T12:32:23.326Z,22.17
2018-01-27T12:34:51.799Z,21.90
2018-01-27T12:37:20.178Z,20.70
2018-01-27T12:39:48.530Z,19.83
2018-01-27T12:42:16.146Z,20.17
2018-01-27T12:44:43.726Z,19.63
2018-01-27T12:47:11.334Z,18.30
2018-01-27T12:49:38.902Z,20.37
2018-01-27T12:52:06.475Z,20.00
2018-01-27T12:54:34.243Z,21.53
2018-01-27T12:57:01.810Z,21.17
2018-01-27T12:59:29.406Z,20.53
2018-01-27T13:01:56.963Z,21.80
2018-01-27T13:04:26.051Z,21.90
2018-01-27T13:06:53.637Z,21.00
2018-01-27T13:09:21.970Z,20.00
2018-01-27T13:11:49.566Z,19.43
2018-01-27T13:14:17.147Z,19.67
2018-01-27T13:16:44.749Z,19.37
2018-01-27T13:19:12.407Z,20.37
2018-01-27T13:21:39.999Z,22.10
2018-01-27T13:24:07.615Z,20.87
2018-01-27T13:26:35.217Z,19.67
2018-01-27T13:29:02.830Z,17.80
2018-01-27T13:31:30.386Z,16.97
2018-01-27T13:33:58.064Z,17.60
2018-01-27T13:36:25.642Z,20.10
2018-01-27T13:38:53.207Z,20.83
2018-01-27T13:41:20.806Z,21.60
2018-01-27T13:43:48.388Z,19.70
2018-01-27T13:46:15.994Z,18.50
2018-01-27T13:48:43.550Z,21.57
2018-01-27T13:51:11.928Z,18.40
2018-01-27T13:53:39.528Z,19.10
2018-01-27T13:56:07.132Z,18.30
2018-01-27T13:58:34.770Z,18.97
2018-01-27T14:01:02.339Z,21.93
2018-01-27T14:03:29.938Z,19.70
2018-01-27T14:05:58.407Z,21.57
2018-01-27T14:08:26.949Z,20.70
2018-01-27T14:10:54.614Z,21.30
2018-01-27T14:13:22.184Z,20.67
2018-01-27T14:15:49.788Z,19.67
2018-01-27T14:18:17.346Z,17.70
2018-01-27T14:20:44.958Z,20.80
2018-01-27T14:23:12.542Z,20.97
2018-01-27T14:25:40.970Z,19.47
2018-01-27T14:28:08.577Z,19.30
2018-01-27T14:30:36.154Z,20.03
2018-01-27T14:33:04.554Z,20.27
2018-01-27T14:35:32.126Z,19.30
2018-01-27T14:37:59.726Z,20.77
2018-01-27T14:40:27.302Z,20.30
2018-01-27T14:42:55.641Z,19.90
2018-01-27T14:45:23.223Z,18.57
2018-01-27T14:47:51.574Z,20.17
2018-01-27T14:50:19.164Z,19.10
2018-01-27T14:52:47.514Z,19.73
2018-01-27T14:55:15.127Z,18.70
2018-01-27T14:57:42.694Z,19.23
2018-01-27T15:00:10.279Z,20.70
2018-01-27T15:02:37.886Z,19.13
2018-01-27T15:05:06.226Z,19.70
2018-01-27T15:07:33.824Z,20.27
2018-01-27T15:10:02.159Z,18.80
2018-01-27T15:12:29.986Z,18.53
2018-01-27T15:14:57.651Z,22.53
2018-01-27T15:17:25.266Z,19.50
2018-01-27T15:19:52.877Z,21.83
2018-01-27T15:22:20.438Z,20.67
2018-01-27T15:24:48.038Z,21.23
2018-01-27T15:27:15.610Z,20.03
2018-01-27T15:29:45.610Z,20.90
2018-01-27T15:32:13.213Z,20.53
2018-01-27T15:34:40.868Z,21.40
2018-01-27T15:37:08.466Z,19.20
2018-01-27T15:42:09.925Z,19.87
2018-01-27T15:44:37.499Z,22.07
2018-01-27T15:47:05.206Z,20.50
2018-01-27T15:49:32.790Z,21.33
2018-01-27T15:52:00.415Z,22.93
2018-01-27T15:54:28.743Z,20.10
2018-01-27T15:56:56.294Z,22.53
2018-01-27T15:59:23.895Z,20.77
2018-01-27T16:01:51.492Z,22.03
2018-01-27T16:04:19.106Z,22.03
2018-01-27T16:06:46.669Z,22.53
2018-01-27T16:09:14.258Z,22.07
2018-01-27T16:11:41.822Z,23.20
2018-01-27T16:14:09.402Z,23.30
2018-01-27T16:16:37.059Z,20.93
2018-01-27T16:19:04.631Z,22.43
2018-01-27T16:21:32.223Z,21.97
2018-01-27T16:23:59.804Z,23.87
2018-01-27T16:26:28.158Z,21.10
2018-01-27T16:28:55.746Z,23.30
2018-01-27T16:31:23.374Z,23.60
2018-01-27T16:33:50.951Z,21.50
2018-01-27T16:36:19.282Z,22.57
2018-01-27T16:38:47.003Z,24.67
2018-01-27T16:41:14.575Z,23.47
2018-01-27T16:43:42.196Z,24.20
2018-01-27T16:46:09.754Z,22.53
2018-01-27T16:48:38.132Z,21.30
2018-01-27T16:51:05.702Z,21.57
2018-01-27T16:53:34.043Z,22.43
2018-01-27T16:56:01.774Z,23.67
2018-01-27T16:58:29.362Z,22.93
2018-01-27T17:00:56.960Z,23.30
2018-01-27T17:03:25.453Z,20.70
2018-01-27T17:05:53.163Z,22.60
2018-01-27T17:08:20.739Z,23.93
2018-01-27T17:10:48.381Z,23.10
2018-01-27T17:13:15.956Z,22.60
2018-01-27T17:15:43.540Z,24.37
2018-01-27T17:18:11.919Z,22.10
2018-01-27T17:20:40.449Z,23.23
2018-01-27T17:23:08.159Z,23.47
2018-01-27T17:25:36.522Z,23.57
2018-01-27T17:28:05.057Z,24.00
2018-01-27T17:30:32.661Z,25.10
2018-01-27T17:33:00.237Z,24.97
2018-01-27T17:35:28.650Z,26.17
2018-01-27T17:37:56.363Z,25.07
2018-01-27T17:40:24.890Z,24.30
2018-01-27T17:42:52.591Z,23.83
2018-01-27T17:45:20.193Z,21.97
2018-01-27T17:47:47.818Z,22.37
2018-01-27T17:50:15.402Z,23.67
2018-01-27T17:52:43.003Z,22.60
2018-01-27T17:55:10.595Z,23.80
2018-01-27T17:57:38.191Z,23.50
2018-01-27T18:00:05.755Z,23.67
2018-01-27T18:02:33.370Z,23.13
2018-01-27T18:05:00.959Z,22.43
2018-01-27T18:07:28.534Z,24.00
2018-01-27T18:09:56.162Z,22.50
2018-01-27T18:12:24.503Z,22.70
2018-01-27T18:14:52.144Z,23.03
2018-01-27T18:17:19.745Z,25.30
2018-01-27T18:19:48.838Z,22.83
2018-01-27T18:22:16.518Z,24.57
2018-01-27T18:24:44.879Z,24.00
2018-01-27T18:27:13.348Z,23.57
2018-01-27T18:29:40.910Z,24.70
2018-01-27T18:32:08.506Z,26.40
2018-01-27T18:34:36.070Z,26.63
2018-01-27T18:37:03.680Z,28.53
2018-01-27T18:39:31.246Z,26.33
2018-01-27T18:41:58.835Z,28.07
2018-01-27T18:44:27.361Z,27.77
2018-01-27T18:46:54.931Z,26.43
2018-01-27T18:49:22.526Z,27.00
2018-01-27T18:51:50.866Z,26.10
2018-01-27T18:54:18.466Z,25.73
2018-01-27T18:56:46.813Z,25.00
2018-01-27T18:59:14.408Z,25.97
2018-01-27T19:01:42.134Z,25.80
2018-01-27T19:04:09.710Z,26.60
2018-01-27T19:06:38.086Z,25.67
2018-01-27T19:09:06.507Z,24.10
2018-01-27T19:11:34.182Z,24.63
2018-01-27T19:14:01.778Z,25.03
2018-01-27T19:16:29.362Z,27.47
2018-01-27T19:18:56.959Z,26.87
2018-01-27T19:21:24.526Z,27.60
2018-01-27T19:23:52.134Z,26.63
2018-01-27T19:26:20.619Z,24.43
2018-01-27T19:28:48.342Z,27.77
2018-01-27T19:31:15.903Z,25.30
2018-01-27T19:33:43.562Z,26.07
2018-01-27T19:36:11.115Z,25.93
2018-01-27T19:38:38.701Z,25.67
2018-01-27T19:41:07.102Z,26.00
2018-01-27T19:43:34.691Z,24.97
2018-01-27T19:46:02.362Z,27.47
2018-01-27T19:48:29.918Z,25.97
2018-01-27T19:50:57.592Z,24.97
2018-01-27T19:53:25.195Z,29.03
2018-01-27T19:55:52.760Z,29.07
2018-01-27T19:58:20.369Z,28.77
2018-01-27T20:00:47.939Z,27.10
2018-01-27T20:03:15.543Z,24.30
2018-01-27T20:05:43.103Z,25.90
2018-01-27T20:08:11.582Z,27.30
2018-01-27T20:10:39.142Z,26.50
2018-01-27T20:13:06.730Z,27.97
2018-01-27T20:15:34.403Z,26.63
2018-01-27T20:18:01.980Z,25.93
2018-01-27T20:20:29.567Z,26.17
2018-01-27T20:22:57.139Z,25.83
2018-01-27T20:25:24.714Z,27.17
2018-01-27T20:27:52.316Z,27.37
2018-01-27T20:30:19.890Z,27.63
2018-01-27T20:32:48.450Z,25.87
2018-01-27T20:35:16.058Z,25.00
2018-01-27T20:37:43.680Z,26.60
2018-01-27T20:40:12.015Z,27.87
2018-01-27T20:42:39.631Z,25.57
2018-01-27T20:45:07.200Z,27.97
2018-01-27T20:47:34.767Z,29.90
2018-01-27T20:50:02.371Z,28.77
2018-01-27T20:52:29.963Z,28.60
2018-01-27T20:54:58.357Z,26.57
2018-01-27T20:57:25.955Z,27.73
2018-01-27T20:59:53.552Z,30.70
2018-01-27T21:02:21.902Z,29.60
2018-01-27T21:04:49.518Z,28.43
2018-01-27T21:07:17.150Z,30.87
2018-01-27T21:09:45.542Z,30.80
2018-01-27T21:12:13.235Z,29.83
2018-01-27T21:14:40.819Z,26.70
2018-01-27T21:17:08.434Z,30.13
2018-01-27T21:19:36.079Z,28.30
2018-01-27T21:22:03.811Z,29.47
2018-01-27T21:24:31.414Z,29.13
2018-01-27T21:26:58.998Z,30.77
2018-01-27T21:29:26.610Z,29.80
2018-01-27T21:31:55.022Z,30.30
2018-01-27T21:34:22.621Z,29.37
2018-01-27T21:36:50.218Z,30.70
2018-01-27T21:39:17.826Z,31.17
2018-01-27T21:41:45.398Z,30.40
2018-01-27T21:44:13.011Z,30.43
2018-01-27T21:46:40.626Z,30.90
2018-01-27T21:49:08.982Z,31.23
2018-01-27T21:51:36.583Z,31.37
2018-01-27T21:54:04.178Z,30.88
2018-01-27T21:56:31.795Z,32.42
2018-01-27T21:59:00.228Z,31.20
2018-01-27T22:01:27.842Z,32.40
2018-01-27T22:03:55.431Z,34.07
2018-01-27T22:06:23.039Z,34.00
2018-01-27T22:08:51.562Z,34.13
2018-01-27T22:11:19.155Z,31.73
2018-01-27T22:13:46.765Z,32.83
2018-01-27T22:16:14.354Z,32.67
2018-01-27T22:18:41.962Z,33.15
2018-01-27T22:21:10.315Z,30.93
2018-01-27T22:23:37.947Z,32.93
2018-01-27T22:26:05.554Z,34.25
2018-01-27T22:28:33.920Z,32.80
2018-01-27T22:31:01.634Z,35.23
2018-01-27T22:33:29.203Z,30.50
2018-01-27T22:35:56.931Z,30.90
2018-01-27T22:38:24.580Z,31.30
2018-01-27T22:40:52.286Z,33.38
2018-01-27T22:43:19.874Z,31.10
2018-01-27T22:45:47.501Z,32.30
2018-01-27T22:48:15.111Z,32.47
2018-01-27T22:50:43.448Z,31.70
2018-01-27T22:53:11.072Z,33.13
2018-01-27T22:55:38.639Z,33.43
2018-01-27T22:58:06.242Z,35.63
2018-01-27T23:00:35.358Z,34.00
2018-01-27T23:03:04.051Z,36.40
2018-01-27T23:05:31.622Z,35.05
2018-01-27T23:07:59.242Z,36.10
2018-01-27T23:10:26.831Z,37.03
2018-01-27T23:12:54.391Z,34.35
2018-01-27T23:15:22.792Z,35.57
2018-01-27T23:17:50.426Z,34.25
2018-01-27T23:20:18.008Z,33.42
2018-01-27T23:22:45.615Z,33.05
2018-01-27T23:25:13.374Z,39.05
2018-01-27T23:27:40.975Z,37.63
2018-01-27T23:30:08.551Z,38.13
2018-01-27T23:32:36.137Z,39.47
2018-01-27T23:35:03.715Z,41.97
2018-01-27T23:37:31.317Z,39.88
2018-01-27T23:39:58.987Z,39.63
2018-01-27T23:42:26.574Z,40.30
2018-01-27T23:44:54.170Z,41.03
2018-01-27T23:47:22.530Z,40.90
2018-01-27T23:49:50.147Z,38.58
2018-01-27T23:52:17.749Z,38.45
2018-01-27T23:54:45.322Z,37.67
2018-01-27T23:57:13.683Z,38.28
2018-01-27T23:59:41.270Z,41.10
